Pagina principale
METAR-TAF:

METAR-TAF

Aeroporti :

Uherské Hradiště, Repubblica Ceca

latitudine: 49-01-46N, longitudine: 017-26-23E, altezza: 177 m

Osservazione

Il bollettino è stato emesso 56 minuti fa, alle 12:00 UTC
Vento 5 kt da sud-ovest, variando fra sud e ovest/nord-ovest
Temperature 25°C
Umidità 47%
Pressione 1016 hPa
Visibilità 10 km o più
nessuna nube inferiore a 1500 m e nessun cumulonembo

METAR: LKKU 171200Z 22005KT 170V290 CAVOK 25/13 Q1016

Ora: 14:56 (12:56 UTC)


TAF: mancante

Osservazioni e previsioni meteorologiche di più di 4000 aeroporti (messaggi METAR e TAF).

Le stazioni disponibili sono rappresentate dai dischi gialli e rossi sulla carta.

Puntare il mouse per vedere il nome della stazione.

Clicca sopra per visualizzare le osservazioni e previsioni meteorologiche.

Per cambiare la mappa : fare clic sui pulsanti verdi con una croce nera per ingrandire, il pulsante verde con un trattino per diminuire, o sulla freccia verde per le mappe adiacenti.


METAR-TAF: